Time;durP1;ratioP1;P1;durP2;ratioP2;P2;SDS_P1;SDS_P2;PMS_P1;PMS_P2;Temp;Humidity;BMP_temperature;BMP_pressure;BME280_temperature;BME280_humidity;BME280_pressure;Samples;Min_cycle;Max_cycle;Signal;HPM_P1;HPM_P2
2022/04/18 00:02:21;;;;;;;3.00;2.70;;;20.00;32.30;21.40;101287.00;;;;5031799;28;20207;-54
2022/04/18 00:04:47;;;;;;;3.13;2.83;;;20.00;32.50;21.40;101268.00;;;;5032291;28;20542;-53
2022/04/18 00:07:13;;;;;;;3.73;3.13;;;20.00;32.50;21.40;101274.00;;;;5031803;28;20250;-54
2022/04/18 00:09:39;;;;;;;2.90;2.70;;;20.00;32.50;21.30;101274.00;;;;5032331;28;20201;-53
2022/04/18 00:12:05;;;;;;;4.23;2.70;;;20.00;32.70;21.30;101263.00;;;;5027177;28;20688;-53
2022/04/18 00:14:30;;;;;;;3.30;3.00;;;20.00;32.60;21.20;101273.00;;;;5011798;28;20204;-53
2022/04/18 00:16:57;;;;;;;4.17;3.03;;;19.90;32.50;21.20;101267.00;;;;5011703;28;20180;-52
2022/04/18 00:19:23;;;;;;;2.93;2.73;;;19.90;32.60;21.10;101270.00;;;;5011961;28;20242;-53
2022/04/18 00:21:49;;;;;;;3.10;2.80;;;19.90;32.60;21.10;101261.00;;;;5011709;28;20680;-53
2022/04/18 00:24:17;;;;;;;2.87;2.60;;;19.90;32.80;21.10;101259.00;;;;5011553;28;20653;-53
2022/04/18 00:26:43;;;;;;;3.07;2.77;;;19.80;32.80;21.00;101264.00;;;;5011148;28;20246;-55
2022/04/18 00:29:09;;;;;;;2.90;2.70;;;19.80;32.70;21.00;101267.00;;;;5012114;28;20182;-55
2022/04/18 00:31:35;;;;;;;2.73;2.53;;;19.80;32.70;21.00;101258.00;;;;5011372;28;20200;-54
2022/04/18 00:34:01;;;;;;;2.90;2.70;;;19.80;32.60;21.00;101267.00;;;;5011546;28;20282;-52
2022/04/18 00:36:26;;;;;;;3.00;2.67;;;19.70;32.60;20.90;101258.00;;;;5011000;28;20738;-53
2022/04/18 00:38:52;;;;;;;3.90;2.80;;;19.70;32.40;20.90;101257.00;;;;5014862;28;20178;-54
2022/04/18 00:41:18;;;;;;;2.67;2.47;;;19.70;32.50;20.90;101257.00;;;;5012086;28;20192;-54
2022/04/18 00:43:45;;;;;;;2.70;2.50;;;19.70;32.60;20.80;101253.00;;;;5010890;28;20655;-53
2022/04/18 00:46:11;;;;;;;3.20;2.90;;;19.70;32.60;20.80;101257.00;;;;5009873;28;20176;-53
2022/04/18 00:48:37;;;;;;;2.77;2.57;;;19.70;32.60;20.80;101253.00;;;;5010989;28;20185;-52
2022/04/18 00:51:04;;;;;;;3.00;2.70;;;19.60;32.50;20.80;101254.00;;;;5011491;28;20279;-54
2022/04/18 00:53:31;;;;;;;2.80;2.60;;;19.70;32.70;20.70;101251.00;;;;5010014;28;20211;-53
2022/04/18 00:55:57;;;;;;;2.67;2.47;;;19.60;32.60;20.70;101251.00;;;;5010886;28;20199;-53
2022/04/18 00:58:23;;;;;;;2.83;2.63;;;19.70;32.70;20.70;101242.00;;;;5009994;28;20269;-52
2022/04/18 01:00:48;;;;;;;2.67;2.47;;;19.60;32.60;20.70;101245.00;;;;5011148;28;20183;-54
2022/04/18 01:03:14;;;;;;;2.60;2.40;;;19.60;32.70;20.70;101249.00;;;;5011085;28;20187;-53
2022/04/18 01:05:40;;;;;;;2.80;2.47;;;19.60;32.80;20.60;101243.00;;;;5011557;28;20180;-53
2022/04/18 01:08:06;;;;;;;4.90;2.73;;;19.60;32.90;20.60;101234.00;;;;5011238;28;20550;-53
2022/04/18 01:10:32;;;;;;;3.10;2.40;;;19.50;32.80;20.60;101230.00;;;;4994069;28;20334;-53
2022/04/18 01:12:57;;;;;;;2.83;2.53;;;19.60;33.30;20.60;101237.00;;;;5009781;28;20648;-54
2022/04/18 01:15:23;;;;;;;2.73;2.53;;;19.60;33.40;20.60;101234.00;;;;5010754;28;20184;-52
2022/04/18 01:17:49;;;;;;;2.90;2.60;;;19.50;33.30;20.60;101234.00;;;;5010350;28;20176;-51
2022/04/18 01:20:15;;;;;;;2.90;2.70;;;19.60;33.30;20.50;101231.00;;;;5010698;28;20641;-53
2022/04/18 01:22:42;;;;;;;2.90;2.60;;;19.50;33.20;20.50;101236.00;;;;5010194;28;20539;-54
2022/04/18 01:30:37;;;;;;;2.60;2.40;;;19.50;33.00;20.40;101218.00;;;;5017782;28;20158;-54
2022/04/18 01:33:03;;;;;;;2.70;2.50;;;19.40;33.20;20.40;101215.00;;;;5011865;28;20160;-54
2022/04/18 01:35:28;;;;;;;2.80;2.50;;;19.40;33.10;20.40;101216.00;;;;5010512;28;20743;-54
2022/04/18 01:37:54;;;;;;;2.80;2.50;;;19.40;33.20;20.40;101220.00;;;;5009617;28;20167;-52
2022/04/18 01:40:20;;;;;;;2.60;2.40;;;19.40;33.20;20.30;101218.00;;;;5010107;28;20172;-51
2022/04/18 01:42:45;;;;;;;2.83;2.50;;;19.40;33.20;20.40;101225.00;;;;5010612;28;20226;-53
2022/04/18 01:45:11;;;;;;;2.70;2.50;;;19.40;33.40;20.30;101229.00;;;;5028013;28;20183;-55
2022/04/18 01:47:37;;;;;;;2.70;2.50;;;19.40;33.50;20.30;101226.00;;;;5009914;28;20179;-53
2022/04/18 01:50:03;;;;;;;2.30;2.10;;;19.30;33.40;20.30;101224.00;;;;5008703;28;20179;-53
2022/04/18 01:52:29;;;;;;;2.50;2.30;;;19.30;33.60;20.30;101220.00;;;;5009715;28;20278;-52
2022/04/18 01:54:54;;;;;;;2.43;2.23;;;19.30;33.70;20.30;101224.00;;;;5009934;28;20207;-53
2022/04/18 01:57:20;;;;;;;2.50;2.30;;;19.30;33.90;20.20;101149.00;;;;5008428;28;20194;-53
2022/04/18 01:59:46;;;;;;;2.57;2.37;;;19.30;33.90;20.20;101220.00;;;;5010040;28;20699;-53
2022/04/18 02:02:12;;;;;;;2.60;2.40;;;19.30;33.90;20.20;101215.00;;;;5027136;28;20206;-53
2022/04/18 02:04:37;;;;;;;3.53;2.30;;;19.30;34.00;20.20;101218.00;;;;5028782;28;20181;-54
2022/04/18 02:07:03;;;;;;;3.40;2.50;;;19.30;34.20;20.10;101214.00;;;;5029497;28;20167;-52
2022/04/18 02:09:29;;;;;;;2.30;2.20;;;19.30;34.10;20.10;101221.00;;;;5029062;28;20248;-54
2022/04/18 02:11:55;;;;;;;2.40;2.10;;;19.20;34.10;20.10;101221.00;;;;5029983;28;20664;-54
2022/04/18 02:14:21;;;;;;;2.60;2.40;;;19.30;34.20;20.10;101216.00;;;;5030905;28;20198;-53
2022/04/18 02:16:47;;;;;;;2.73;2.40;;;19.20;34.20;20.10;101210.00;;;;5031336;28;20175;-52
2022/04/18 02:19:12;;;;;;;2.30;2.10;;;19.20;34.20;20.10;101156.00;;;;5030537;28;20170;-53
2022/04/18 02:21:38;;;;;;;2.37;2.17;;;19.20;34.20;20.00;101213.00;;;;5029871;28;20682;-55
2022/04/18 02:24:04;;;;;;;2.40;2.20;;;19.20;34.20;20.00;101202.00;;;;5029550;28;20788;-54
2022/04/18 02:26:29;;;;;;;2.37;2.17;;;19.10;34.30;20.00;101211.00;;;;5028053;28;20171;-53
2022/04/18 02:28:55;;;;;;;3.00;2.30;;;19.20;34.40;20.00;101200.00;;;;5029069;28;20695;-52
2022/04/18 02:31:21;;;;;;;2.77;2.57;;;19.10;34.30;20.00;101205.00;;;;5029176;28;20191;-53
2022/04/18 02:33:47;;;;;;;2.73;2.33;;;19.10;34.30;20.00;101208.00;;;;5028658;28;20222;-53
2022/04/18 02:36:12;;;;;;;2.87;2.57;;;19.20;34.40;19.90;101200.00;;;;5028841;28;20183;-52
2022/04/18 02:38:38;;;;;;;2.30;2.10;;;19.10;34.50;19.90;101199.00;;;;5028694;28;20206;-59
2022/04/18 02:41:04;;;;;;;2.30;2.10;;;19.10;34.50;19.90;101190.00;;;;5043988;28;20187;-53
2022/04/18 02:43:29;;;;;;;2.50;2.30;;;19.10;34.50;19.90;101194.00;;;;5028454;28;20175;-52
2022/04/18 02:45:55;;;;;;;2.50;2.30;;;19.00;34.50;19.90;101185.00;;;;5031654;28;20670;-55
2022/04/18 02:48:21;;;;;;;2.43;2.23;;;19.10;34.60;19.90;101188.00;;;;5046619;28;20175;-55
2022/04/18 02:50:46;;;;;;;2.47;2.23;;;19.10;34.60;19.90;101186.00;;;;5049260;28;20536;-55
2022/04/18 02:53:12;;;;;;;2.27;2.10;;;19.00;34.60;19.90;101182.00;;;;5042224;28;20179;-52
2022/04/18 02:55:38;;;;;;;2.40;2.20;;;19.00;34.60;19.80;101176.00;;;;5038527;28;20234;-53
2022/04/18 02:58:03;;;;;;;2.43;2.23;;;19.00;34.60;19.80;101174.00;;;;5032429;28;20702;-53
2022/04/18 03:00:29;;;;;;;2.33;2.07;;;19.00;34.70;19.80;101168.00;;;;5028770;28;20183;-54
2022/04/18 03:02:55;;;;;;;2.30;2.10;;;19.00;34.80;19.80;101172.00;;;;5028328;28;20198;-54
2022/04/18 03:05:21;;;;;;;2.00;1.90;;;19.00;34.80;19.80;101166.00;;;;5028593;28;20163;-55
2022/04/18 03:07:46;;;;;;;2.43;2.23;;;19.00;34.90;19.80;101168.00;;;;5030971;28;20175;-53
2022/04/18 03:10:12;;;;;;;2.40;2.20;;;19.00;34.90;19.70;101158.00;;;;5038005;28;20213;-53
2022/04/18 03:12:38;;;;;;;2.37;2.17;;;19.00;34.90;19.70;101159.00;;;;5034205;28;20199;-53
2022/04/18 03:15:04;;;;;;;2.40;2.20;;;18.90;34.90;19.70;101157.00;;;;5029347;28;20206;-54
2022/04/18 03:17:30;;;;;;;2.40;2.20;;;18.90;34.90;19.70;101147.00;;;;5031042;28;20170;-53
2022/04/18 03:19:55;;;;;;;2.50;2.30;;;18.90;34.90;19.70;101151.00;;;;5028620;28;20690;-52
2022/04/18 03:22:21;;;;;;;2.40;2.20;;;18.90;34.90;19.70;101144.00;;;;5032336;28;20197;-55
2022/04/18 03:24:47;;;;;;;2.43;2.23;;;18.80;34.90;19.60;101153.00;;;;5031829;28;20178;-53
2022/04/18 03:27:13;;;;;;;2.30;2.10;;;18.80;34.90;19.70;101155.00;;;;5031988;28;20186;-53
2022/04/18 03:29:38;;;;;;;2.40;2.20;;;18.80;34.80;19.70;101149.00;;;;5032052;28;20171;-54
2022/04/18 03:32:05;;;;;;;2.20;2.10;;;18.80;34.90;19.70;101150.00;;;;5032105;28;20217;-53
2022/04/18 03:34:31;;;;;;;2.37;2.17;;;18.80;34.80;19.60;101145.00;;;;5031889;28;20201;-53
2022/04/18 03:39:54;;;;;;;2.17;2.00;;;18.80;34.80;19.60;101151.00;;;;5031675;28;20655;-53
2022/04/18 03:42:31;;;;;;;2.40;2.17;;;18.80;34.80;19.60;101140.00;;;;5031778;28;20209;-54
2022/04/18 03:45:03;;;;;;;3.57;2.23;;;18.80;35.00;19.60;101141.00;;;;5028396;28;20670;-55
2022/04/18 03:47:29;;;;;;;3.30;2.00;;;18.80;34.90;19.60;101148.00;;;;5022784;28;20190;-55
2022/04/18 03:49:55;;;;;;;2.53;2.30;;;18.70;34.90;19.60;101146.00;;;;5031682;28;20178;-54
2022/04/18 03:52:21;;;;;;;2.40;2.17;;;18.70;34.90;19.60;101145.00;;;;5031646;28;20252;-52
2022/04/18 03:54:47;;;;;;;3.87;2.30;;;18.70;34.90;19.50;101148.00;;;;5030781;28;20561;-54
2022/04/18 03:57:14;;;;;;;3.10;2.20;;;18.70;35.00;19.50;101133.00;;;;5031392;28;20197;-55
2022/04/18 03:59:40;;;;;;;2.47;2.07;;;18.60;34.90;19.50;101137.00;;;;5030612;28;20189;-53
2022/04/18 04:02:06;;;;;;;2.70;2.50;;;18.60;34.70;19.50;101140.00;;;;5031223;28;20224;-53
2022/04/18 04:04:32;;;;;;;2.80;2.20;;;18.60;34.80;19.50;101135.00;;;;5031009;28;20191;-53
2022/04/18 04:06:58;;;;;;;4.70;2.20;;;18.60;34.90;19.50;101133.00;;;;5030842;28;20210;-54
2022/04/18 04:09:24;;;;;;;2.67;2.10;;;18.60;34.70;19.40;101125.00;;;;5031121;28;20666;-54
2022/04/18 04:11:50;;;;;;;2.40;2.20;;;18.60;34.80;19.40;101121.00;;;;5031000;28;20187;-53
2022/04/18 04:14:16;;;;;;;2.40;2.20;;;18.60;34.90;19.40;101134.00;;;;5030842;28;20205;-54
2022/04/18 04:16:42;;;;;;;3.37;2.17;;;18.50;34.70;19.40;101143.00;;;;5030812;28;20265;-54
2022/04/18 04:19:07;;;;;;;3.13;2.20;;;18.60;34.90;19.40;101130.00;;;;5031042;28;20175;-52
2022/04/18 04:21:33;;;;;;;3.17;2.00;;;18.50;34.90;19.40;101137.00;;;;5031262;28;20194;-55
2022/04/18 04:24:00;;;;;;;2.47;2.23;;;18.50;35.00;19.30;101150.00;;;;5031300;28;20244;-53
2022/04/18 04:26:26;;;;;;;3.37;2.30;;;18.50;35.00;19.30;101143.00;;;;5030771;28;20186;-54
2022/04/18 04:28:51;;;;;;;2.20;2.00;;;18.50;35.10;19.30;101146.00;;;;5030646;28;20170;-54
2022/04/18 04:31:17;;;;;;;3.43;2.27;;;18.50;35.00;19.30;101153.00;;;;5030659;28;20201;-54
2022/04/18 04:33:43;;;;;;;2.60;2.20;;;18.50;35.00;19.30;101146.00;;;;5029921;28;20207;-53
2022/04/18 04:36:08;;;;;;;4.10;2.20;;;18.50;35.10;19.30;101158.00;;;;5030556;28;20174;-53
2022/04/18 04:38:34;;;;;;;2.90;2.07;;;18.50;35.20;19.30;101148.00;;;;5030999;28;20540;-54
2022/04/18 04:41:01;;;;;;;2.97;2.20;;;18.40;35.10;19.30;101150.00;;;;5031190;28;20183;-52
2022/04/18 04:43:29;;;;;;;2.63;2.20;;;18.40;35.20;19.20;101156.00;;;;5030912;28;20185;-53
2022/04/18 04:45:56;;;;;;;2.03;1.83;;;18.40;35.30;19.20;101156.00;;;;5030451;28;20824;-53
2022/04/18 04:48:22;;;;;;;2.40;2.20;;;18.40;35.50;19.20;101147.00;;;;5030308;28;20181;-54
2022/04/18 04:50:48;;;;;;;3.00;2.10;;;18.40;35.50;19.20;101142.00;;;;5030963;28;20181;-53
2022/04/18 04:53:14;;;;;;;3.60;2.20;;;18.40;35.50;19.20;101148.00;;;;5033293;28;20179;-53
2022/04/18 04:55:41;;;;;;;2.23;2.03;;;18.40;35.50;19.20;101143.00;;;;5039266;28;20177;-53
2022/04/18 04:58:09;;;;;;;3.17;2.20;;;18.40;35.50;19.20;101151.00;;;;5036008;28;20175;-51
2022/04/18 05:00:35;;;;;;;3.03;2.17;;;18.30;35.60;19.10;101151.00;;;;5030563;28;20179;-53
2022/04/18 05:03:01;;;;;;;2.27;2.07;;;18.40;35.70;19.10;101161.00;;;;5030516;28;20253;-53
2022/04/18 05:05:26;;;;;;;4.87;2.20;;;18.30;35.60;19.10;101153.00;;;;5030146;28;20272;-52
2022/04/18 05:07:52;;;;;;;2.20;2.00;;;18.30;35.60;19.10;101150.00;;;;5030142;28;20166;-54
2022/04/18 05:10:18;;;;;;;2.53;2.20;;;18.30;35.70;19.10;101153.00;;;;5029799;28;20190;-54
2022/04/18 05:12:44;;;;;;;2.50;2.30;;;18.30;35.80;19.10;101156.00;;;;5030041;28;20198;-52
2022/04/18 05:15:10;;;;;;;3.13;2.20;;;18.30;35.80;19.10;101155.00;;;;5029780;28;20236;-53
2022/04/18 05:17:35;;;;;;;2.60;2.03;;;18.30;35.80;19.00;101155.00;;;;5030099;28;20173;-53
2022/04/18 05:20:03;;;;;;;2.40;2.20;;;18.20;35.80;19.00;101161.00;;;;5030050;28;20173;-54
2022/04/18 05:22:28;;;;;;;2.33;2.13;;;18.30;35.90;19.00;101168.00;;;;5028765;28;20677;-53
2022/04/18 05:24:55;;;;;;;2.57;2.10;;;18.20;35.80;19.00;101170.00;;;;5029866;28;20185;-54
2022/04/18 05:27:21;;;;;;;2.30;2.10;;;18.20;35.90;19.00;101169.00;;;;5030542;28;20177;-54
2022/04/18 05:29:47;;;;;;;2.27;2.07;;;18.20;36.00;19.00;101172.00;;;;5029768;28;20163;-54
2022/04/18 05:32:12;;;;;;;2.17;2.00;;;18.20;36.00;18.90;101179.00;;;;5030844;28;20223;-53
2022/04/18 05:34:39;;;;;;;2.40;2.20;;;18.10;36.00;18.90;101178.00;;;;5029427;28;20224;-53
2022/04/18 05:37:05;;;;;;;2.33;2.13;;;18.10;36.10;18.90;101184.00;;;;5029382;28;20169;-53
2022/04/18 05:39:30;;;;;;;2.40;1.90;;;18.10;36.00;18.90;101188.00;;;;5029534;28;20170;-54
2022/04/18 05:41:56;;;;;;;2.20;2.00;;;18.10;36.10;18.90;101187.00;;;;5029839;28;20191;-53
2022/04/18 05:44:22;;;;;;;2.17;1.97;;;18.10;36.10;18.90;101191.00;;;;5028717;28;20714;-53
2022/04/18 05:46:49;;;;;;;2.27;2.00;;;18.10;36.10;18.90;101188.00;;;;5029180;28;20268;-53
2022/04/18 05:49:15;;;;;;;2.10;1.90;;;18.10;36.20;18.90;101185.00;;;;5029650;28;20332;-53
2022/04/18 05:51:40;;;;;;;2.20;2.00;;;18.10;36.30;18.90;101187.00;;;;5029745;28;20253;-53
2022/04/18 05:54:06;;;;;;;2.23;2.10;;;18.10;36.40;18.80;101190.00;;;;5029414;28;20190;-52
2022/04/18 05:56:32;;;;;;;2.20;2.00;;;18.00;36.30;18.80;101182.00;;;;5029485;28;20644;-54
2022/04/18 05:58:58;;;;;;;2.70;2.20;;;18.00;36.40;18.80;101191.00;;;;5029058;28;20178;-53
2022/04/18 06:01:23;;;;;;;2.27;2.00;;;18.00;36.40;18.80;101181.00;;;;5029062;28;20209;-53
2022/04/18 06:03:49;;;;;;;2.40;2.10;;;18.00;36.60;18.80;101189.00;;;;5028906;28;20180;-53
2022/04/18 06:06:15;;;;;;;1.90;1.80;;;18.10;36.70;18.80;101186.00;;;;5032044;28;20166;-53
2022/04/18 06:08:41;;;;;;;2.20;2.00;;;18.00;36.60;18.80;101185.00;;;;5045562;28;20637;-53
2022/04/18 06:11:06;;;;;;;2.30;2.10;;;18.00;36.60;18.70;101186.00;;;;5046660;28;20197;-53
2022/04/18 06:13:32;;;;;;;2.40;2.20;;;18.00;36.70;18.70;101193.00;;;;5042461;28;20207;-55
2022/04/18 06:15:58;;;;;;;2.30;2.10;;;18.00;36.70;18.70;101192.00;;;;5035499;28;20579;-53
2022/04/18 06:18:24;;;;;;;2.20;2.00;;;18.10;36.70;18.70;101189.00;;;;5029451;28;20174;-53
2022/04/18 06:20:49;;;;;;;5.17;2.00;;;18.00;36.80;18.70;101189.00;;;;5034237;28;20251;-52
2022/04/18 06:23:18;;;;;;;2.57;2.00;;;17.90;37.10;18.60;101179.00;;;;5028792;28;20164;-54
2022/04/18 06:25:44;;;;;;;4.13;2.20;;;17.90;37.30;18.60;101190.00;;;;5029273;28;20169;-54
2022/04/18 06:28:10;;;;;;;2.47;2.00;;;18.00;37.30;18.60;101187.00;;;;5029491;28;20219;-52
2022/04/18 06:30:36;;;;;;;2.97;2.10;;;17.90;37.10;18.60;101181.00;;;;5028878;28;20186;-52
2022/04/18 06:33:02;;;;;;;2.30;1.90;;;18.00;37.20;18.60;101186.00;;;;5029007;28;20701;-53
2022/04/18 06:35:27;;;;;;;2.13;2.00;;;17.90;37.70;18.30;101191.00;;;;5030237;28;20208;-51
2022/04/18 06:37:53;;;;;;;2.93;2.13;;;17.90;37.40;18.60;101188.00;;;;5030127;28;20180;-51
2022/04/18 06:40:19;;;;;;;2.47;2.07;;;17.90;37.30;18.60;101176.00;;;;5028748;28;20175;-52
2022/04/18 06:42:45;;;;;;;2.70;2.10;;;17.90;37.30;18.60;101189.00;;;;5029565;28;20191;-52
2022/04/18 06:45:10;;;;;;;2.87;2.20;;;17.90;37.40;18.60;101194.00;;;;5032709;28;20174;-53
2022/04/18 06:47:36;;;;;;;3.13;2.20;;;17.90;37.50;18.60;101192.00;;;;5031486;28;20175;-52
2022/04/18 06:50:08;;;;;;;3.53;2.27;;;17.90;37.90;18.70;101196.00;;;;5028668;28;20167;-51
2022/04/18 06:52:49;;;;;;;3.73;2.50;;;17.90;38.40;18.70;101194.00;;;;5027299;28;20348;-52
2022/04/18 06:55:15;;;;;;;5.30;2.47;;;17.90;38.90;18.70;101196.00;;;;5026210;28;20199;-52
2022/04/18 06:57:41;;;;;;;4.07;2.17;;;17.90;39.30;18.70;101198.00;;;;5028243;28;20293;-53
2022/04/18 07:00:07;;;;;;;2.67;2.33;;;17.90;39.60;18.70;101193.00;;;;5027704;28;20172;-52
2022/04/18 07:02:33;;;;;;;5.63;2.20;;;17.90;40.10;18.70;101192.00;;;;5028186;28;20755;-52
2022/04/18 07:04:59;;;;;;;6.30;2.50;;;17.90;40.80;18.70;101188.00;;;;5028007;28;20177;-51
2022/04/18 07:07:25;;;;;;;7.23;2.37;;;17.90;41.20;18.70;101189.00;;;;5028057;28;20627;-52
2022/04/18 07:09:50;;;;;;;8.10;2.60;;;17.90;40.90;18.70;101193.00;;;;5027412;28;20159;-52
2022/04/18 07:12:22;;;;;;;10.70;2.53;;;17.90;41.50;18.70;101194.00;;;;5028271;28;20788;-53
2022/04/18 07:14:51;;;;;;;19.67;3.17;;;17.90;41.10;18.70;101192.00;;;;5027220;28;20276;-52
2022/04/18 07:17:17;;;;;;;8.00;2.90;;;17.90;41.20;18.70;101198.00;;;;5026723;28;20163;-52
2022/04/18 07:19:43;;;;;;;9.10;2.60;;;17.90;41.00;18.70;101198.00;;;;5026857;28;20540;-55
2022/04/18 07:22:08;;;;;;;6.63;2.90;;;17.90;41.00;18.70;101195.00;;;;5026915;28;20196;-52
2022/04/18 07:24:34;;;;;;;6.10;3.00;;;17.90;41.20;18.70;101198.00;;;;5026152;28;20183;-53
2022/04/18 07:27:03;;;;;;;9.07;3.03;;;17.90;41.10;18.70;101199.00;;;;4943637;28;20182;-52
2022/04/18 07:29:28;;;;;;;8.07;2.83;;;17.90;41.10;18.70;101205.00;;;;5028119;28;20191;-52
2022/04/18 07:31:54;;;;;;;8.80;2.70;;;17.90;41.00;18.70;101196.00;;;;5028500;28;20191;-52
2022/04/18 07:34:20;;;;;;;8.40;2.60;;;17.90;41.00;18.70;101197.00;;;;5027347;28;20675;-52
2022/04/18 07:36:46;;;;;;;6.73;2.83;;;17.90;41.10;18.70;101205.00;;;;5027345;28;20235;-52
2022/04/18 07:39:12;;;;;;;7.43;2.97;;;17.90;41.00;18.70;101205.00;;;;5028376;28;20175;-52
2022/04/18 07:41:37;;;;;;;9.73;3.40;;;17.80;41.00;18.70;101196.00;;;;5028417;28;20183;-54
2022/04/18 07:44:03;;;;;;;9.77;3.90;;;17.80;41.00;18.70;101199.00;;;;5028052;28;20184;-52
2022/04/18 07:46:30;;;;;;;9.17;4.43;;;17.80;41.00;18.70;101193.00;;;;5027715;28;20393;-52
2022/04/18 07:48:56;;;;;;;14.20;4.50;;;17.90;41.10;18.70;101208.00;;;;5031718;28;20188;-51
2022/04/18 07:51:41;;;;;;;11.97;5.00;;;17.80;41.10;18.70;101194.00;;;;5029097;28;20212;-53
2022/04/18 07:54:12;;;;;;;8.17;4.37;;;17.80;42.20;18.70;101202.00;;;;5027508;28;20203;-53
2022/04/18 07:56:38;;;;;;;14.83;4.27;;;17.90;41.40;18.70;101200.00;;;;5027914;28;20237;-53
2022/04/18 07:59:03;;;;;;;10.63;3.90;;;17.80;41.20;18.70;101194.00;;;;5028252;28;20632;-53
2022/04/18 08:01:29;;;;;;;10.70;3.90;;;17.80;41.30;18.70;101192.00;;;;5027047;28;20199;-53
2022/04/18 08:03:57;;;;;;;12.13;4.00;;;17.90;41.30;18.70;101194.00;;;;5027539;28;20659;-52
2022/04/18 08:06:22;;;;;;;10.43;3.90;;;17.80;41.20;18.70;101194.00;;;;5027592;28;20734;-51
2022/04/18 08:08:48;;;;;;;10.23;3.87;;;17.80;41.20;18.70;101195.00;;;;5030693;28;20169;-52
2022/04/18 08:11:15;;;;;;;12.30;3.90;;;17.80;41.30;18.70;101191.00;;;;5031582;28;20198;-53
2022/04/18 08:13:45;;;;;;;12.63;3.83;;;17.80;41.30;18.70;101185.00;;;;5031061;28;20200;-52
2022/04/18 08:16:11;;;;;;;10.37;3.90;;;17.80;41.30;18.70;101186.00;;;;5031139;28;20509;-53
2022/04/18 08:18:39;;;;;;;9.27;3.60;;;17.80;41.30;18.70;101180.00;;;;5033181;28;20166;-53
2022/04/18 08:21:06;;;;;;;9.80;3.97;;;17.80;41.20;18.70;101173.00;;;;5033069;28;20187;-52
2022/04/18 08:23:32;;;;;;;11.93;3.60;;;17.80;41.40;18.70;101186.00;;;;5033851;28;20661;-52
2022/04/18 08:25:58;;;;;;;10.80;3.80;;;17.80;41.30;18.70;101182.00;;;;5031446;28;20168;-53
2022/04/18 08:28:25;;;;;;;7.93;3.37;;;17.80;41.30;18.70;101184.00;;;;5042630;28;20172;-53
2022/04/18 08:30:51;;;;;;;6.23;3.50;;;17.80;41.40;18.70;101179.00;;;;5041065;28;20167;-54
2022/04/18 08:33:17;;;;;;;7.90;3.90;;;17.80;41.50;18.70;101186.00;;;;5037219;28;20234;-52
2022/04/18 08:35:42;;;;;;;7.97;3.13;;;17.80;41.50;18.70;101181.00;;;;5030972;28;20176;-54
2022/04/18 08:38:08;;;;;;;7.03;3.50;;;17.80;41.60;18.70;101175.00;;;;5030918;28;20689;-52
2022/04/18 08:40:34;;;;;;;6.47;3.53;;;17.80;41.70;18.70;101173.00;;;;5031411;28;20171;-52
2022/04/18 08:43:00;;;;;;;8.33;3.30;;;17.70;41.70;18.70;101173.00;;;;5029732;28;20187;-52
2022/04/18 08:45:26;;;;;;;6.77;3.30;;;17.70;41.70;18.70;101162.00;;;;5030644;28;20225;-53
2022/04/18 08:53:31;;;;;;;6.27;3.13;;;17.70;41.70;18.70;101161.00;;;;5029400;28;20218;-52
2022/04/18 08:55:58;;;;;;;6.73;3.10;;;17.70;41.80;18.70;101164.00;;;;5030327;28;20165;-52
2022/04/18 08:58:26;;;;;;;5.53;3.13;;;17.70;41.80;18.70;101164.00;;;;5030856;28;20637;-52
2022/04/18 09:00:52;;;;;;;3.83;2.77;;;17.70;41.90;18.70;101164.00;;;;5030555;28;20311;-52
2022/04/18 09:03:18;;;;;;;5.77;2.87;;;17.70;41.90;18.60;101162.00;;;;5030247;28;20167;-52
2022/04/18 09:05:44;;;;;;;4.70;2.70;;;17.70;41.90;18.70;101153.00;;;;5030248;28;20251;-53
2022/04/18 09:08:10;;;;;;;6.43;2.97;;;17.70;41.90;18.70;101165.00;;;;5030241;28;20183;-52
2022/04/18 09:10:40;;;;;;;4.50;2.90;;;17.70;42.00;18.70;101164.00;;;;5030716;28;20260;-52
2022/04/18 09:13:09;;;;;;;6.30;3.00;;;17.80;42.20;18.70;101163.00;;;;5030821;28;20155;-54
2022/04/18 09:15:54;;;;;;;5.70;3.17;;;17.70;42.10;18.70;101152.00;;;;5028590;28;20636;-52
2022/04/18 09:18:21;;;;;;;4.23;2.53;;;17.70;42.20;18.60;101151.00;;;;5030273;28;20640;-51
2022/04/18 09:20:52;;;;;;;5.63;2.90;;;17.70;42.30;18.60;101155.00;;;;5030783;28;20174;-52
2022/04/18 09:23:32;;;;;;;3.43;2.60;;;17.80;42.50;18.60;101146.00;;;;5030044;28;20195;-53
2022/04/18 09:26:06;;;;;;;6.43;2.90;;;17.70;42.40;18.60;101143.00;;;;5030114;28;20161;-53
2022/04/18 09:28:37;;;;;;;5.37;2.90;;;17.80;42.50;18.60;101135.00;;;;5030031;28;20699;-53
2022/04/18 09:31:09;;;;;;;4.17;2.93;;;17.80;42.60;18.60;101139.00;;;;5029775;28;20217;-51
2022/04/18 09:33:37;;;;;;;4.33;2.60;;;17.80;42.60;18.60;101141.00;;;;5029884;28;20547;-54
2022/04/18 09:36:12;;;;;;;4.70;2.77;;;17.80;42.80;18.60;101132.00;;;;5029566;28;20167;-53
2022/04/18 09:38:43;;;;;;;5.50;2.60;;;17.80;42.90;18.60;101125.00;;;;5029976;28;20163;-52
2022/04/18 09:41:20;;;;;;;4.73;2.60;;;17.80;42.90;18.60;101120.00;;;;5029967;28;20586;-52
2022/04/18 09:43:48;;;;;;;4.30;2.50;;;17.80;43.00;18.60;101114.00;;;;5029392;28;20162;-52
2022/04/18 09:46:14;;;;;;;4.10;2.53;;;17.80;42.90;18.60;101109.00;;;;5029149;28;20651;-52
2022/04/18 09:48:43;;;;;;;4.40;2.70;;;17.90;43.10;18.70;101114.00;;;;5029825;28;20184;-53
2022/04/18 09:51:14;;;;;;;4.67;2.60;;;17.90;43.10;18.70;101105.00;;;;5029756;28;20268;-52
2022/04/18 09:53:44;;;;;;;4.40;2.97;;;17.90;43.10;18.70;101110.00;;;;5028365;28;20271;-52
2022/04/18 09:56:16;;;;;;;4.73;2.60;;;17.90;43.10;18.70;101099.00;;;;5030178;28;20178;-51
2022/04/18 09:58:42;;;;;;;3.83;2.53;;;17.90;43.20;18.70;101088.00;;;;5044931;28;20194;-51
2022/04/18 10:01:08;;;;;;;3.17;2.40;;;17.90;43.10;18.70;101086.00;;;;5030067;28;20239;-53
2022/04/18 10:03:34;;;;;;;3.13;2.37;;;17.90;43.00;18.70;101095.00;;;;5029641;28;20631;-52
2022/04/18 10:06:01;;;;;;;3.73;2.60;;;17.90;43.20;18.70;101085.00;;;;5029384;28;20175;-52
2022/04/18 10:08:28;;;;;;;2.87;2.57;;;17.90;43.30;18.70;101080.00;;;;5029522;28;20277;-52
2022/04/18 10:10:54;;;;;;;3.80;2.20;;;18.00;43.50;18.80;101075.00;;;;5031270;28;20262;-52
2022/04/18 10:13:21;;;;;;;4.17;2.57;;;18.00;43.50;18.80;101073.00;;;;5011639;28;20171;-51
2022/04/18 10:15:47;;;;;;;3.67;2.50;;;18.00;43.60;18.80;101068.00;;;;5029709;28;20313;-54
2022/04/18 10:18:14;;;;;;;3.17;2.40;;;18.00;43.60;18.80;101057.00;;;;5011170;28;20261;-51
2022/04/18 10:20:58;;;;;;;3.03;2.30;;;18.10;43.60;18.80;101008.00;;;;5011768;28;20189;-52
2022/04/18 10:23:54;;;;;;;3.10;2.43;;;18.10;43.70;18.80;101066.00;;;;5027668;28;20486;-52
2022/04/18 10:26:56;;;;;;;4.27;2.27;;;18.10;43.60;18.90;101064.00;;;;5028825;28;20171;-52
2022/04/18 10:29:30;;;;;;;2.90;2.23;;;18.10;43.70;18.80;101055.00;;;;5028543;28;20176;-51
2022/04/18 10:31:56;;;;;;;2.57;2.37;;;18.20;43.80;18.90;101058.00;;;;5027272;28;20553;-53
2022/04/18 10:34:23;;;;;;;3.00;2.10;;;18.20;43.90;18.90;101044.00;;;;5029519;28;20225;-53
2022/04/18 10:36:52;;;;;;;2.53;2.20;;;18.20;43.90;18.90;101052.00;;;;5030181;28;20175;-53
2022/04/18 10:39:17;;;;;;;2.43;2.17;;;18.20;44.00;18.90;101049.00;;;;5030249;28;20623;-52
2022/04/18 10:41:45;;;;;;;3.47;2.40;;;18.20;43.90;18.90;101045.00;;;;5028828;28;20264;-51
2022/04/18 10:44:15;;;;;;;4.60;2.47;;;18.20;44.00;18.90;101041.00;;;;5029008;28;20183;-53
2022/04/18 10:46:42;;;;;;;2.40;2.17;;;18.30;44.10;18.90;101039.00;;;;5030633;28;20156;-55
2022/04/18 10:49:19;;;;;;;3.20;2.43;;;18.20;44.10;19.00;101032.00;;;;5029802;28;20529;-52
2022/04/18 10:51:48;;;;;;;3.00;2.30;;;18.30;44.50;19.00;101023.00;;;;5034104;28;20203;-53
2022/04/18 10:54:13;;;;;;;2.83;2.30;;;18.30;45.00;19.00;101037.00;;;;5058172;28;20206;-53
2022/04/18 10:56:56;;;;;;;2.30;2.07;;;18.30;44.40;19.00;101032.00;;;;5042506;28;20243;-53
2022/04/18 10:59:25;;;;;;;2.30;2.10;;;18.40;44.50;19.00;101033.00;;;;5036233;28;20184;-52
2022/04/18 11:01:53;;;;;;;3.30;2.30;;;18.40;44.50;19.10;101027.00;;;;5028608;28;20207;-52